createdAt,value
2022-11-05T00:01:51.083Z,5.93
2022-11-05T00:04:17.563Z,5.99
2022-11-05T00:06:44.182Z,5.55
2022-11-05T00:09:10.708Z,5.93
2022-11-05T00:11:37.306Z,5.58
2022-11-05T00:14:03.847Z,5.56
2022-11-05T00:16:30.259Z,5.98
2022-11-05T00:18:56.630Z,5.87
2022-11-05T00:21:23.156Z,6.32
2022-11-05T00:23:50.152Z,6.30
2022-11-05T00:26:16.829Z,6.12
2022-11-05T00:28:43.202Z,6.00
2022-11-05T00:31:11.545Z,6.48
2022-11-05T00:33:38.021Z,5.58
2022-11-05T00:36:04.429Z,5.50
2022-11-05T00:38:33.204Z,5.73
2022-11-05T00:41:01.691Z,5.93
2022-11-05T00:43:28.156Z,5.69
2022-11-05T00:45:54.944Z,5.95
2022-11-05T00:48:21.799Z,6.36
2022-11-05T00:50:48.291Z,6.34
2022-11-05T00:53:15.255Z,6.09
2022-11-05T00:55:41.735Z,5.77
2022-11-05T00:58:10.555Z,5.54
2022-11-05T01:00:37.765Z,5.87
2022-11-05T01:03:06.534Z,5.93
2022-11-05T01:05:33.973Z,5.76
2022-11-05T01:08:00.542Z,5.77
2022-11-05T01:10:26.988Z,6.24
2022-11-05T01:12:53.479Z,5.39
2022-11-05T01:15:20.156Z,6.10
2022-11-05T01:17:46.502Z,6.24
2022-11-05T01:20:12.993Z,6.49
2022-11-05T01:22:39.582Z,6.53
2022-11-05T01:25:05.973Z,5.69
2022-11-05T01:27:32.418Z,6.17
2022-11-05T01:29:59.301Z,5.80
2022-11-05T01:32:25.753Z,6.28
2022-11-05T01:34:52.246Z,6.63
2022-11-05T01:37:18.901Z,6.36
2022-11-05T01:39:45.764Z,6.23
2022-11-05T01:42:12.321Z,6.57
2022-11-05T01:44:41.422Z,6.86
2022-11-05T01:47:12.450Z,6.84
2022-11-05T01:49:39.326Z,6.59
2022-11-05T01:52:06.236Z,6.57
2022-11-05T01:54:32.876Z,6.87
2022-11-05T01:57:00.271Z,6.47
2022-11-05T01:59:26.781Z,6.61
2022-11-05T02:01:53.296Z,6.76
2022-11-05T02:04:20.874Z,6.59
2022-11-05T02:06:47.696Z,6.93
2022-11-05T02:09:14.182Z,6.77
2022-11-05T02:11:41.055Z,6.73
2022-11-05T02:14:07.811Z,6.38
2022-11-05T02:16:34.596Z,6.74
2022-11-05T02:19:02.122Z,6.68
2022-11-05T02:21:29.568Z,6.71
2022-11-05T02:23:57.176Z,6.61
2022-11-05T02:26:23.618Z,6.05
2022-11-05T02:28:51.100Z,6.65
2022-11-05T02:31:17.697Z,6.34
2022-11-05T02:33:44.369Z,6.62
2022-11-05T02:36:11.138Z,6.24
2022-11-05T02:38:37.760Z,6.12
2022-11-05T02:41:04.413Z,6.47
2022-11-05T02:43:31.246Z,6.50
2022-11-05T02:45:57.990Z,6.48
2022-11-05T02:48:24.738Z,6.65
2022-11-05T02:50:54.148Z,6.63
2022-11-05T02:53:21.668Z,6.32
2022-11-05T02:55:48.142Z,6.65
2022-11-05T02:58:15.234Z,6.39
2022-11-05T03:00:41.760Z,6.54
2022-11-05T03:03:08.759Z,6.47
2022-11-05T03:05:35.595Z,6.61
2022-11-05T03:08:02.397Z,5.84
2022-11-05T03:10:28.958Z,5.95
2022-11-05T03:12:55.470Z,6.29
2022-11-05T03:15:21.850Z,6.25
2022-11-05T03:17:48.238Z,5.89
2022-11-05T03:20:14.924Z,6.02
2022-11-05T03:22:42.388Z,6.44
2022-11-05T03:25:08.775Z,6.26
2022-11-05T03:27:35.235Z,6.13
2022-11-05T03:30:01.686Z,6.32
2022-11-05T03:32:28.378Z,6.59
2022-11-05T03:34:54.851Z,6.31
2022-11-05T03:37:21.277Z,6.49
2022-11-05T03:39:47.789Z,6.93
2022-11-05T03:42:14.319Z,6.77
2022-11-05T03:44:40.827Z,6.35
2022-11-05T03:47:07.197Z,6.43
2022-11-05T03:49:33.933Z,6.27
2022-11-05T03:52:00.424Z,5.91
2022-11-05T03:54:26.798Z,6.18
2022-11-05T03:56:53.544Z,6.45
2022-11-05T03:59:19.969Z,6.41
2022-11-05T04:01:46.699Z,5.46
2022-11-05T04:04:13.576Z,6.09
2022-11-05T04:06:39.967Z,6.07
2022-11-05T04:09:06.405Z,6.24
2022-11-05T04:11:32.999Z,6.17
2022-11-05T04:13:59.383Z,5.87
2022-11-05T04:16:25.929Z,6.19
2022-11-05T04:18:52.488Z,5.96
2022-11-05T04:21:18.957Z,5.74
2022-11-05T04:23:45.476Z,6.46
2022-11-05T04:26:12.106Z,5.87
2022-11-05T04:28:38.512Z,6.44
2022-11-05T04:31:04.953Z,6.39
2022-11-05T04:33:31.576Z,6.03
2022-11-05T04:35:58.075Z,6.04
2022-11-05T04:38:24.631Z,6.35
2022-11-05T04:40:51.098Z,6.46
2022-11-05T04:43:17.864Z,6.52
2022-11-05T04:45:44.748Z,6.57
2022-11-05T04:48:11.559Z,6.71
2022-11-05T04:50:38.081Z,6.86
2022-11-05T04:53:04.526Z,6.82
2022-11-05T04:55:31.184Z,6.72
2022-11-05T04:57:57.800Z,5.86
2022-11-05T05:00:24.467Z,6.50
2022-11-05T05:02:50.945Z,6.39
2022-11-05T05:05:17.414Z,6.62
2022-11-05T05:07:44.547Z,6.70
2022-11-05T05:10:11.435Z,6.53
2022-11-05T05:12:37.885Z,6.50
2022-11-05T05:15:04.342Z,6.60
2022-11-05T05:17:30.765Z,6.17
2022-11-05T05:19:57.219Z,6.18
2022-11-05T05:22:23.747Z,6.07
2022-11-05T05:24:53.007Z,6.04
2022-11-05T05:27:19.679Z,6.41
2022-11-05T05:29:46.184Z,5.78
2022-11-05T05:32:12.586Z,6.19
2022-11-05T05:34:39.014Z,5.84
2022-11-05T05:37:05.932Z,6.48
2022-11-05T05:39:32.333Z,6.00
2022-11-05T05:41:59.020Z,6.41
2022-11-05T05:44:25.403Z,6.45
2022-11-05T05:46:52.131Z,6.00
2022-11-05T05:49:18.842Z,6.00
2022-11-05T05:51:45.372Z,6.36
2022-11-05T05:54:11.896Z,6.62
2022-11-05T05:56:38.328Z,6.53
2022-11-05T05:59:04.789Z,6.84
2022-11-05T06:01:32.267Z,6.86
2022-11-05T06:03:58.928Z,5.72
2022-11-05T06:06:25.749Z,5.95
2022-11-05T06:08:52.609Z,5.74
2022-11-05T06:11:19.271Z,6.07
2022-11-05T06:13:45.720Z,6.35
2022-11-05T06:16:12.504Z,5.57
2022-11-05T06:18:38.888Z,5.63
2022-11-05T06:21:06.469Z,5.97
2022-11-05T06:23:33.308Z,5.86
2022-11-05T06:25:59.747Z,6.01
2022-11-05T06:28:26.339Z,6.13
2022-11-05T06:30:53.093Z,6.05
2022-11-05T06:33:19.458Z,6.46
2022-11-05T06:35:46.031Z,5.78
2022-11-05T06:38:12.857Z,6.01
2022-11-05T06:40:39.308Z,5.86
2022-11-05T06:43:05.785Z,6.34
2022-11-05T06:45:34.418Z,6.25
2022-11-05T06:48:00.919Z,6.25
2022-11-05T06:50:27.356Z,6.41
2022-11-05T06:52:54.159Z,6.41
2022-11-05T06:55:20.824Z,6.37
2022-11-05T06:57:47.189Z,6.30
2022-11-05T07:00:13.879Z,6.09
2022-11-05T07:02:40.461Z,5.86
2022-11-05T07:05:07.155Z,6.50
2022-11-05T07:07:33.758Z,6.43
2022-11-05T07:10:00.283Z,6.13
2022-11-05T07:12:26.771Z,6.45
2022-11-05T07:14:53.431Z,6.14
2022-11-05T07:17:19.895Z,6.30
2022-11-05T07:19:46.533Z,6.18
2022-11-05T07:22:13.125Z,5.83
2022-11-05T07:24:39.869Z,6.54
2022-11-05T07:27:06.551Z,6.30
2022-11-05T07:29:34.571Z,5.93
2022-11-05T07:32:01.001Z,6.39
2022-11-05T07:34:27.576Z,6.58
2022-11-05T07:36:55.846Z,6.81
2022-11-05T07:39:22.414Z,6.75
2022-11-05T07:41:48.924Z,6.71
2022-11-05T07:44:16.173Z,6.15
2022-11-05T07:46:42.640Z,6.32
2022-11-05T07:49:09.152Z,6.45
2022-11-05T07:51:35.960Z,6.29
2022-11-05T07:54:02.440Z,6.32
2022-11-05T07:56:29.281Z,6.80
2022-11-05T07:58:56.179Z,6.71
2022-11-05T08:01:25.876Z,6.43
2022-11-05T08:03:53.294Z,6.25
2022-11-05T08:06:22.083Z,6.59
2022-11-05T08:08:48.611Z,6.77
2022-11-05T08:11:16.503Z,7.23
2022-11-05T08:13:43.333Z,6.77
2022-11-05T08:16:12.064Z,6.70
2022-11-05T08:18:38.621Z,6.87
2022-11-05T08:21:06.323Z,6.38
2022-11-05T08:23:33.768Z,6.22
2022-11-05T08:26:00.487Z,6.92
2022-11-05T08:28:27.028Z,6.79
2022-11-05T08:30:53.540Z,6.99
2022-11-05T08:33:20.000Z,7.18
2022-11-05T08:35:47.001Z,6.78
2022-11-05T08:38:13.556Z,6.75
2022-11-05T08:40:40.226Z,6.85
2022-11-05T08:43:06.686Z,6.37
2022-11-05T08:45:33.144Z,6.73
2022-11-05T08:47:59.606Z,6.79
2022-11-05T08:50:26.047Z,7.01
2022-11-05T08:52:52.439Z,6.96
2022-11-05T08:55:19.329Z,6.83
2022-11-05T08:57:45.840Z,6.50
2022-11-05T09:00:12.531Z,7.16
2022-11-05T09:02:39.149Z,6.96
2022-11-05T09:05:05.775Z,7.16
2022-11-05T09:07:32.408Z,7.43
2022-11-05T09:09:58.895Z,7.00
2022-11-05T09:12:25.554Z,6.93
2022-11-05T09:14:52.064Z,7.37
2022-11-05T09:17:18.575Z,7.27
2022-11-05T09:19:45.343Z,7.79
2022-11-05T09:22:11.883Z,7.47
2022-11-05T09:24:38.372Z,6.78
2022-11-05T09:27:05.332Z,7.04
2022-11-05T09:29:34.831Z,6.83
2022-11-05T09:32:01.238Z,6.81
2022-11-05T09:34:27.826Z,7.43
2022-11-05T09:36:54.554Z,7.56
2022-11-05T09:39:21.951Z,6.63
2022-11-05T09:41:48.647Z,7.55
2022-11-05T09:44:15.259Z,7.54
2022-11-05T09:46:41.708Z,7.47
2022-11-05T09:49:08.384Z,7.05
2022-11-05T09:51:35.806Z,7.17
2022-11-05T09:54:02.465Z,6.64
2022-11-05T09:56:29.091Z,7.14
2022-11-05T09:58:55.664Z,7.25
2022-11-05T10:01:22.364Z,7.94
2022-11-05T10:03:49.316Z,7.73
2022-11-05T10:06:15.730Z,7.58
2022-11-05T10:08:42.191Z,7.50
2022-11-05T10:11:08.921Z,6.82
2022-11-05T10:13:35.390Z,7.34
2022-11-05T10:16:01.777Z,7.51
2022-11-05T10:18:28.302Z,7.36
2022-11-05T10:20:54.745Z,7.64
2022-11-05T10:23:21.188Z,7.33
2022-11-05T10:25:47.693Z,7.82
2022-11-05T10:28:14.208Z,7.37
2022-11-05T10:30:40.754Z,7.06
2022-11-05T10:33:07.249Z,7.43
2022-11-05T10:35:33.663Z,7.87
2022-11-05T10:37:59.999Z,7.25
2022-11-05T10:40:26.577Z,7.40
2022-11-05T10:42:52.966Z,7.52
2022-11-05T10:45:21.663Z,7.71
2022-11-05T10:47:48.384Z,7.93
2022-11-05T10:50:15.829Z,8.02
2022-11-05T10:52:42.231Z,8.16
2022-11-05T10:55:09.063Z,8.07
2022-11-05T10:57:35.602Z,8.05
2022-11-05T11:00:04.420Z,7.97
2022-11-05T11:02:32.075Z,7.47
2022-11-05T11:04:58.541Z,7.49
2022-11-05T11:07:24.975Z,7.74
2022-11-05T11:09:51.745Z,7.94
2022-11-05T11:12:18.153Z,8.18
2022-11-05T11:14:44.511Z,8.30
2022-11-05T11:17:11.045Z,8.02
2022-11-05T11:19:37.934Z,8.12
2022-11-05T11:22:04.369Z,7.42
2022-11-05T11:24:33.563Z,7.71
2022-11-05T11:27:01.275Z,8.16
2022-11-05T11:29:27.756Z,7.88
2022-11-05T11:45:39.589Z,7.14
2022-11-05T11:48:05.979Z,7.78
2022-11-05T11:50:32.367Z,7.63
2022-11-05T11:52:58.829Z,8.08
2022-11-05T11:55:25.242Z,7.84
2022-11-05T11:57:51.852Z,7.95
2022-11-05T12:00:18.688Z,7.67
2022-11-05T12:02:45.141Z,7.20
2022-11-05T12:05:11.539Z,8.01
2022-11-05T12:07:38.297Z,7.48
2022-11-05T12:10:04.895Z,7.19
2022-11-05T12:12:31.673Z,7.70
2022-11-05T12:14:58.340Z,7.75
2022-11-05T12:17:25.537Z,6.92
2022-11-05T12:19:52.021Z,6.27
2022-11-05T12:22:18.454Z,7.26
2022-11-05T12:24:44.831Z,7.15
2022-11-05T12:27:13.638Z,7.37
2022-11-05T12:29:40.161Z,7.54
2022-11-05T12:32:06.705Z,7.44
2022-11-05T12:34:34.151Z,7.80
2022-11-05T12:37:01.022Z,7.03
2022-11-05T12:39:27.430Z,6.43
2022-11-05T12:41:53.851Z,7.09
2022-11-05T12:44:23.514Z,7.64
2022-11-05T12:46:49.938Z,7.72
2022-11-05T12:49:18.832Z,7.85
2022-11-05T12:51:47.171Z,8.31
2022-11-05T12:54:13.592Z,8.20
2022-11-05T12:56:40.312Z,7.67
2022-11-05T12:59:07.109Z,7.29
2022-11-05T13:01:33.661Z,7.61
2022-11-05T13:04:00.112Z,7.22
2022-11-05T13:06:26.616Z,7.40
2022-11-05T13:08:53.171Z,7.51
2022-11-05T13:11:19.590Z,6.42
2022-11-05T13:13:46.371Z,7.11
2022-11-05T13:16:13.068Z,7.45
2022-11-05T13:18:39.826Z,7.63
2022-11-05T13:21:07.130Z,7.22
2022-11-05T13:23:33.779Z,7.36
2022-11-05T13:26:00.191Z,7.53
2022-11-05T13:28:26.789Z,7.35
2022-11-05T13:30:53.387Z,7.17
2022-11-05T13:33:19.797Z,7.12
2022-11-05T13:35:46.912Z,7.39
2022-11-05T13:38:13.312Z,7.41
2022-11-05T13:40:40.138Z,7.51
2022-11-05T13:43:07.211Z,7.77
2022-11-05T13:45:33.811Z,7.66
2022-11-05T13:48:00.210Z,7.48
2022-11-05T13:50:27.780Z,7.50
2022-11-05T13:52:54.466Z,8.02
2022-11-05T13:55:21.131Z,7.84
2022-11-05T13:57:47.905Z,8.12
2022-11-05T14:00:15.303Z,7.49
2022-11-05T14:02:42.240Z,7.68
2022-11-05T14:05:10.247Z,7.48
2022-11-05T14:07:36.606Z,7.17
2022-11-05T14:10:03.203Z,7.41
2022-11-05T14:12:29.790Z,8.07
2022-11-05T14:14:59.184Z,8.09
2022-11-05T14:17:25.996Z,7.28
2022-11-05T14:19:52.893Z,7.26
2022-11-05T14:22:19.747Z,7.25
2022-11-05T14:24:47.293Z,7.36
2022-11-05T14:27:15.518Z,7.62
2022-11-05T14:29:41.989Z,7.42
2022-11-05T14:32:09.813Z,7.82
2022-11-05T14:34:37.177Z,7.70
2022-11-05T14:37:03.571Z,7.85
2022-11-05T14:39:30.403Z,8.40
2022-11-05T14:41:57.127Z,7.75
2022-11-05T14:44:24.098Z,7.65
2022-11-05T14:46:50.511Z,7.96
2022-11-05T14:49:17.233Z,8.05
2022-11-05T14:51:43.584Z,7.82
2022-11-05T14:54:10.021Z,7.67
2022-11-05T14:56:36.718Z,7.21
2022-11-05T14:59:03.422Z,7.71
2022-11-05T15:01:31.350Z,7.51
2022-11-05T15:03:58.633Z,8.06
2022-11-05T15:06:25.119Z,7.36
2022-11-05T15:08:52.037Z,7.47
2022-11-05T15:11:18.976Z,6.90
2022-11-05T15:13:45.408Z,6.98
2022-11-05T15:16:11.756Z,7.15
2022-11-05T15:18:38.444Z,7.24
2022-11-05T15:21:08.240Z,6.87
2022-11-05T15:23:34.823Z,7.42
2022-11-05T15:26:01.633Z,7.35
2022-11-05T15:28:28.380Z,7.58
2022-11-05T15:30:55.231Z,8.01
2022-11-05T15:33:21.951Z,7.86
2022-11-05T15:35:48.672Z,7.33
2022-11-05T15:38:15.433Z,7.80
2022-11-05T15:40:42.932Z,6.95
2022-11-05T15:43:09.955Z,7.64
2022-11-05T15:45:36.609Z,7.37
2022-11-05T15:48:03.313Z,7.93
2022-11-05T15:50:29.997Z,8.02
2022-11-05T15:53:04.850Z,7.62
2022-11-05T15:55:41.255Z,7.67
2022-11-05T15:58:07.620Z,8.16
2022-11-05T16:00:34.007Z,8.23
2022-11-05T16:03:00.807Z,7.13
2022-11-05T16:05:27.529Z,6.84
2022-11-05T16:07:56.711Z,7.58
2022-11-05T16:10:23.283Z,7.18
2022-11-05T16:12:49.635Z,6.78
2022-11-05T16:15:16.391Z,6.89
2022-11-05T16:17:43.255Z,7.85
2022-11-05T16:20:09.969Z,6.69
2022-11-05T16:22:36.402Z,6.72
2022-11-05T16:25:03.393Z,7.04
2022-11-05T16:27:29.930Z,6.71
2022-11-05T16:29:56.878Z,6.75
2022-11-05T16:32:28.515Z,6.77
2022-11-05T16:34:56.543Z,7.36
2022-11-05T16:37:23.311Z,6.98
2022-11-05T16:39:50.459Z,6.38
2022-11-05T16:42:17.098Z,7.13
2022-11-05T16:44:43.700Z,7.08
2022-11-05T16:47:10.502Z,6.71
2022-11-05T16:49:37.034Z,6.94
2022-11-05T16:52:03.725Z,7.17
2022-11-05T16:54:30.818Z,6.66
2022-11-05T16:56:57.360Z,7.22
2022-11-05T16:59:23.907Z,6.79
2022-11-05T17:01:55.498Z,6.21
2022-11-05T17:04:22.461Z,7.05
2022-11-05T17:06:49.268Z,7.09
2022-11-05T17:09:17.150Z,7.19
2022-11-05T17:11:46.126Z,6.85
2022-11-05T17:14:16.281Z,6.56
2022-11-05T17:16:42.776Z,6.82
2022-11-05T17:19:09.454Z,7.09
2022-11-05T17:21:36.137Z,7.32
2022-11-05T17:24:03.669Z,7.52
2022-11-05T17:26:32.503Z,7.76
2022-11-05T17:28:58.872Z,7.19
2022-11-05T17:31:25.897Z,7.29
2022-11-05T17:33:52.467Z,7.61
2022-11-05T17:36:20.199Z,7.23
2022-11-05T17:38:48.262Z,6.99
2022-11-05T17:41:15.029Z,7.08
2022-11-05T17:43:41.799Z,6.63
2022-11-05T17:46:09.819Z,7.20
2022-11-05T17:48:36.436Z,7.43
2022-11-05T17:51:03.154Z,7.16
2022-11-05T17:53:30.543Z,7.09
2022-11-05T17:55:57.907Z,7.17
2022-11-05T17:58:24.643Z,7.50
2022-11-05T18:00:52.152Z,7.74
2022-11-05T18:03:19.055Z,7.93
2022-11-05T18:05:45.887Z,8.19
2022-11-05T18:08:15.687Z,8.06
2022-11-05T18:10:42.483Z,8.28
2022-11-05T18:13:08.917Z,8.12
2022-11-05T18:15:35.890Z,7.48
2022-11-05T18:18:02.771Z,7.14
2022-11-05T18:20:29.253Z,7.49
2022-11-05T18:22:56.113Z,8.09
2022-11-05T18:25:22.911Z,7.66
2022-11-05T18:27:49.737Z,7.85
2022-11-05T18:30:17.042Z,7.31
2022-11-05T18:32:43.919Z,7.26
2022-11-05T18:35:12.039Z,7.42
2022-11-05T18:37:38.992Z,7.18
2022-11-05T18:40:06.360Z,7.37
2022-11-05T18:42:33.151Z,7.69
2022-11-05T18:45:00.336Z,7.20
2022-11-05T18:47:27.149Z,7.76
2022-11-05T18:49:56.014Z,7.84
2022-11-05T18:52:22.874Z,7.70
2022-11-05T18:54:50.114Z,7.77
2022-11-05T18:57:16.880Z,7.69
2022-11-05T18:59:44.032Z,7.57
2022-11-05T19:02:10.858Z,7.34
2022-11-05T19:04:37.795Z,7.23
2022-11-05T19:07:05.852Z,7.36
2022-11-05T19:09:33.837Z,6.99
2022-11-05T19:12:00.748Z,6.70
2022-11-05T19:14:29.074Z,7.16
2022-11-05T19:16:55.853Z,6.75
2022-11-05T19:19:23.571Z,6.91
2022-11-05T19:21:50.368Z,7.06
2022-11-05T19:24:17.310Z,7.21
2022-11-05T19:26:44.358Z,7.06
2022-11-05T19:29:12.223Z,6.96
2022-11-05T19:31:39.619Z,6.95
2022-11-05T19:34:06.497Z,6.31
2022-11-05T19:36:33.415Z,6.45
2022-11-05T19:39:00.473Z,6.36
2022-11-05T19:41:27.351Z,6.86
2022-11-05T19:43:54.517Z,6.57
2022-11-05T19:46:21.214Z,6.89
2022-11-05T19:48:48.295Z,6.65
2022-11-05T19:51:15.490Z,6.85
2022-11-05T19:53:41.963Z,6.92
2022-11-05T19:56:08.713Z,6.71
2022-11-05T19:58:36.645Z,6.79
2022-11-05T20:01:05.971Z,6.49
2022-11-05T20:03:33.196Z,6.51
2022-11-05T20:06:00.395Z,6.44
2022-11-05T20:08:27.668Z,6.13
2022-11-05T20:10:54.519Z,5.77
2022-11-05T20:13:23.325Z,6.29
2022-11-05T20:15:50.087Z,6.37
2022-11-05T20:18:16.560Z,6.43
2022-11-05T20:20:43.382Z,6.74
2022-11-05T20:23:11.118Z,6.74
2022-11-05T20:25:37.592Z,6.00
2022-11-05T20:28:04.479Z,6.35
2022-11-05T20:30:31.452Z,6.62
2022-11-05T20:32:58.309Z,7.23
2022-11-05T20:35:25.323Z,7.39
2022-11-05T20:37:54.124Z,6.71
2022-11-05T20:40:21.304Z,6.30
2022-11-05T20:42:48.922Z,6.26
2022-11-05T20:45:15.753Z,6.07
2022-11-05T20:47:42.532Z,6.10
2022-11-05T20:50:12.222Z,6.33
2022-11-05T20:52:39.066Z,6.51
2022-11-05T20:55:06.325Z,6.43
2022-11-05T20:57:34.590Z,6.53
2022-11-05T21:00:01.115Z,6.20
2022-11-05T21:02:29.060Z,6.22
2022-11-05T21:04:56.245Z,5.51
2022-11-05T21:07:26.271Z,5.66
2022-11-05T21:09:53.271Z,5.86
2022-11-05T21:12:20.657Z,5.74
2022-11-05T21:14:50.244Z,6.52
2022-11-05T21:17:18.038Z,6.71
2022-11-05T21:19:44.916Z,6.33
2022-11-05T21:22:11.949Z,6.01
2022-11-05T21:24:41.810Z,5.94
2022-11-05T21:27:08.393Z,5.99
2022-11-05T21:29:35.000Z,5.56
2022-11-05T21:32:02.800Z,5.75
2022-11-05T21:34:29.658Z,6.08
2022-11-05T21:36:56.075Z,5.69
2022-11-05T21:39:22.848Z,5.85
2022-11-05T21:41:50.044Z,6.24
2022-11-05T21:44:16.911Z,5.51
2022-11-05T21:46:43.851Z,5.54
2022-11-05T21:49:10.425Z,5.55
2022-11-05T21:51:36.893Z,6.40
2022-11-05T21:54:03.750Z,5.87
2022-11-05T21:56:30.646Z,5.33
2022-11-05T21:58:57.482Z,6.31
2022-11-05T22:01:23.976Z,6.64
2022-11-05T22:03:51.510Z,6.68
2022-11-05T22:06:17.938Z,6.34
2022-11-05T22:08:45.488Z,6.08
2022-11-05T22:11:12.601Z,5.61
2022-11-05T22:13:39.152Z,5.62
2022-11-05T22:16:05.821Z,6.12
2022-11-05T22:18:32.265Z,5.49
2022-11-05T22:21:01.311Z,5.12
2022-11-05T22:23:27.695Z,5.68
2022-11-05T22:25:55.818Z,5.83
2022-11-05T22:28:22.283Z,5.63
2022-11-05T22:30:49.729Z,5.56
2022-11-05T22:33:16.375Z,5.11
2022-11-05T22:35:42.721Z,5.71
2022-11-05T22:38:09.542Z,6.04
2022-11-05T22:40:36.331Z,5.74
2022-11-05T22:43:02.729Z,5.37
2022-11-05T22:45:29.084Z,5.00
2022-11-05T22:47:55.568Z,5.30
2022-11-05T22:50:21.982Z,4.93
2022-11-05T22:52:48.543Z,5.59
2022-11-05T22:55:15.621Z,5.23
2022-11-05T22:57:41.966Z,5.35
2022-11-05T23:00:09.364Z,5.41
2022-11-05T23:02:35.942Z,4.54
2022-11-05T23:05:03.409Z,5.38
2022-11-05T23:07:30.083Z,5.56
2022-11-05T23:09:56.656Z,5.98
2022-11-05T23:12:23.183Z,6.19
2022-11-05T23:14:49.827Z,4.98
2022-11-05T23:17:16.396Z,5.59
2022-11-05T23:19:42.803Z,5.82
2022-11-05T23:22:09.201Z,5.46
2022-11-05T23:24:35.616Z,4.47
2022-11-05T23:27:04.393Z,4.95
2022-11-05T23:29:30.806Z,4.99
2022-11-05T23:31:57.202Z,4.82
2022-11-05T23:34:23.590Z,4.93
2022-11-05T23:36:50.037Z,4.91
2022-11-05T23:39:16.537Z,5.49
2022-11-05T23:41:42.942Z,4.75
2022-11-05T23:44:09.320Z,4.44
2022-11-05T23:46:35.785Z,4.60
2022-11-05T23:49:02.435Z,5.04
2022-11-05T23:51:28.975Z,4.57
2022-11-05T23:53:55.701Z,4.57
2022-11-05T23:56:22.135Z,5.00
2022-11-05T23:58:48.996Z,5.33
